sensor_id;sensor_type;location;lat;lon;timestamp;temperature;humidity
11963;DHT22;62678;52.130;5.584;2023-07-02T00:01:47;16.70;99.90
11963;DHT22;62678;52.130;5.584;2023-07-02T00:04:14;16.40;99.90
11963;DHT22;62678;52.130;5.584;2023-07-02T00:06:42;16.30;99.90
11963;DHT22;62678;52.130;5.584;2023-07-02T00:09:09;16.20;99.90
11963;DHT22;62678;52.130;5.584;2023-07-02T00:11:39;16.00;99.90
11963;DHT22;62678;52.130;5.584;2023-07-02T00:14:07;16.00;99.90
11963;DHT22;62678;52.130;5.584;2023-07-02T00:16:35;16.00;99.90
11963;DHT22;62678;52.130;5.584;2023-07-02T00:19:02;16.10;99.90
11963;DHT22;62678;52.130;5.584;2023-07-02T00:21:29;16.20;99.90
11963;DHT22;62678;52.130;5.584;2023-07-02T00:23:59;16.10;99.90
11963;DHT22;62678;52.130;5.584;2023-07-02T00:26:27;16.20;99.90
11963;DHT22;62678;52.130;5.584;2023-07-02T00:28:56;16.20;99.90
11963;DHT22;62678;52.130;5.584;2023-07-02T00:31:24;16.20;99.90
11963;DHT22;62678;52.130;5.584;2023-07-02T00:33:51;16.20;99.90
11963;DHT22;62678;52.130;5.584;2023-07-02T00:36:18;16.20;99.90
11963;DHT22;62678;52.130;5.584;2023-07-02T00:38:46;16.20;99.90
11963;DHT22;62678;52.130;5.584;2023-07-02T00:41:14;16.20;99.90
11963;DHT22;62678;52.130;5.584;2023-07-02T00:43:42;16.20;99.90
11963;DHT22;62678;52.130;5.584;2023-07-02T00:46:14;16.20;99.90
11963;DHT22;62678;52.130;5.584;2023-07-02T00:48:43;16.20;99.90
11963;DHT22;62678;52.130;5.584;2023-07-02T00:51:13;16.20;99.90
11963;DHT22;62678;52.130;5.584;2023-07-02T00:53:41;16.20;99.90
11963;DHT22;62678;52.130;5.584;2023-07-02T00:56:08;16.20;99.90
11963;DHT22;62678;52.130;5.584;2023-07-02T00:58:38;16.30;99.90
11963;DHT22;62678;52.130;5.584;2023-07-02T01:01:05;16.20;99.90
11963;DHT22;62678;52.130;5.584;2023-07-02T01:03:36;16.20;99.90
11963;DHT22;62678;52.130;5.584;2023-07-02T01:06:03;16.20;99.90
11963;DHT22;62678;52.130;5.584;2023-07-02T01:08:30;16.20;99.90
11963;DHT22;62678;52.130;5.584;2023-07-02T01:10:58;16.10;99.90
11963;DHT22;62678;52.130;5.584;2023-07-02T01:13:26;16.10;99.90
11963;DHT22;62678;52.130;5.584;2023-07-02T01:15:53;16.00;99.90
11963;DHT22;62678;52.130;5.584;2023-07-02T01:18:21;16.10;99.90
11963;DHT22;62678;52.130;5.584;2023-07-02T01:20:50;16.00;99.90
11963;DHT22;62678;52.130;5.584;2023-07-02T01:23:19;16.10;99.90
11963;DHT22;62678;52.130;5.584;2023-07-02T01:25:46;16.00;99.90
11963;DHT22;62678;52.130;5.584;2023-07-02T01:28:14;15.90;99.90
11963;DHT22;62678;52.130;5.584;2023-07-02T01:30:41;15.80;99.90
11963;DHT22;62678;52.130;5.584;2023-07-02T01:33:08;15.70;99.90
11963;DHT22;62678;52.130;5.584;2023-07-02T01:35:35;15.70;99.90
11963;DHT22;62678;52.130;5.584;2023-07-02T01:38:03;15.60;99.90
11963;DHT22;62678;52.130;5.584;2023-07-02T01:40:30;15.60;99.90
11963;DHT22;62678;52.130;5.584;2023-07-02T01:42:57;15.50;99.90
11963;DHT22;62678;52.130;5.584;2023-07-02T01:45:24;15.50;99.90
11963;DHT22;62678;52.130;5.584;2023-07-02T01:47:51;15.50;99.90
11963;DHT22;62678;52.130;5.584;2023-07-02T01:50:17;15.40;99.90
11963;DHT22;62678;52.130;5.584;2023-07-02T01:52:44;15.30;99.90
11963;DHT22;62678;52.130;5.584;2023-07-02T01:55:13;15.30;99.90
11963;DHT22;62678;52.130;5.584;2023-07-02T01:57:40;15.30;99.90
11963;DHT22;62678;52.130;5.584;2023-07-02T02:00:08;15.30;99.90
11963;DHT22;62678;52.130;5.584;2023-07-02T02:02:36;15.20;99.90
11963;DHT22;62678;52.130;5.584;2023-07-02T02:05:03;15.10;99.90
11963;DHT22;62678;52.130;5.584;2023-07-02T02:07:30;15.10;99.90
11963;DHT22;62678;52.130;5.584;2023-07-02T02:09:58;15.00;99.90
11963;DHT22;62678;52.130;5.584;2023-07-02T02:12:26;15.00;99.90
11963;DHT22;62678;52.130;5.584;2023-07-02T02:14:54;14.90;99.90
11963;DHT22;62678;52.130;5.584;2023-07-02T02:17:21;14.80;99.90
11963;DHT22;62678;52.130;5.584;2023-07-02T02:19:49;14.80;99.90
11963;DHT22;62678;52.130;5.584;2023-07-02T02:22:16;14.70;99.90
11963;DHT22;62678;52.130;5.584;2023-07-02T02:24:43;14.60;99.90
11963;DHT22;62678;52.130;5.584;2023-07-02T02:27:10;14.60;99.90
11963;DHT22;62678;52.130;5.584;2023-07-02T02:29:38;14.50;99.90
11963;DHT22;62678;52.130;5.584;2023-07-02T02:32:06;14.50;99.90
11963;DHT22;62678;52.130;5.584;2023-07-02T02:34:33;14.60;99.90
11963;DHT22;62678;52.130;5.584;2023-07-02T02:37:00;14.50;99.90
11963;DHT22;62678;52.130;5.584;2023-07-02T02:39:27;14.40;99.90
11963;DHT22;62678;52.130;5.584;2023-07-02T02:41:54;14.40;99.90
11963;DHT22;62678;52.130;5.584;2023-07-02T02:44:21;14.40;99.90
11963;DHT22;62678;52.130;5.584;2023-07-02T02:46:49;14.30;99.90
11963;DHT22;62678;52.130;5.584;2023-07-02T02:49:16;14.20;99.90
11963;DHT22;62678;52.130;5.584;2023-07-02T02:51:43;14.10;99.90
11963;DHT22;62678;52.130;5.584;2023-07-02T02:54:13;14.10;99.90
11963;DHT22;62678;52.130;5.584;2023-07-02T02:56:39;14.10;99.90
11963;DHT22;62678;52.130;5.584;2023-07-02T02:59:06;14.10;99.90
11963;DHT22;62678;52.130;5.584;2023-07-02T03:01:33;14.00;99.90
11963;DHT22;62678;52.130;5.584;2023-07-02T03:04:02;14.00;99.90
11963;DHT22;62678;52.130;5.584;2023-07-02T03:06:29;14.00;99.90
11963;DHT22;62678;52.130;5.584;2023-07-02T03:08:56;14.00;99.90
11963;DHT22;62678;52.130;5.584;2023-07-02T03:11:23;14.00;99.90
11963;DHT22;62678;52.130;5.584;2023-07-02T03:13:50;14.00;99.90
11963;DHT22;62678;52.130;5.584;2023-07-02T03:16:17;13.90;99.90
11963;DHT22;62678;52.130;5.584;2023-07-02T03:18:47;14.00;99.90
11963;DHT22;62678;52.130;5.584;2023-07-02T03:21:15;14.00;99.90
11963;DHT22;62678;52.130;5.584;2023-07-02T03:23:42;14.10;99.90
11963;DHT22;62678;52.130;5.584;2023-07-02T03:26:10;14.00;99.90
11963;DHT22;62678;52.130;5.584;2023-07-02T03:28:37;14.00;99.90
11963;DHT22;62678;52.130;5.584;2023-07-02T03:31:04;14.00;99.90
11963;DHT22;62678;52.130;5.584;2023-07-02T03:33:32;14.10;99.90
11963;DHT22;62678;52.130;5.584;2023-07-02T03:35:59;14.00;99.90
11963;DHT22;62678;52.130;5.584;2023-07-02T03:38:27;14.00;99.90
11963;DHT22;62678;52.130;5.584;2023-07-02T03:40:54;14.00;99.90
11963;DHT22;62678;52.130;5.584;2023-07-02T03:43:21;14.10;99.90
11963;DHT22;62678;52.130;5.584;2023-07-02T03:45:51;14.10;99.90
11963;DHT22;62678;52.130;5.584;2023-07-02T03:48:18;14.00;99.90
11963;DHT22;62678;52.130;5.584;2023-07-02T03:50:45;14.00;99.90
11963;DHT22;62678;52.130;5.584;2023-07-02T03:53:12;14.00;99.90
11963;DHT22;62678;52.130;5.584;2023-07-02T03:55:40;14.00;99.90
11963;DHT22;62678;52.130;5.584;2023-07-02T03:58:07;14.00;99.90
11963;DHT22;62678;52.130;5.584;2023-07-02T04:00:34;14.00;99.90
11963;DHT22;62678;52.130;5.584;2023-07-02T04:03:01;14.00;99.90
11963;DHT22;62678;52.130;5.584;2023-07-02T04:05:28;14.10;99.90
11963;DHT22;62678;52.130;5.584;2023-07-02T04:07:55;14.20;99.90
11963;DHT22;62678;52.130;5.584;2023-07-02T04:10:22;14.20;99.90
11963;DHT22;62678;52.130;5.584;2023-07-02T04:12:51;14.20;99.90
11963;DHT22;62678;52.130;5.584;2023-07-02T04:15:18;14.20;99.90
11963;DHT22;62678;52.130;5.584;2023-07-02T04:17:44;14.10;99.90
11963;DHT22;62678;52.130;5.584;2023-07-02T04:20:11;14.20;99.90
11963;DHT22;62678;52.130;5.584;2023-07-02T04:22:38;14.20;99.90
11963;DHT22;62678;52.130;5.584;2023-07-02T04:25:06;14.20;99.90
11963;DHT22;62678;52.130;5.584;2023-07-02T04:27:33;14.30;99.90
11963;DHT22;62678;52.130;5.584;2023-07-02T04:30:02;14.30;99.90
11963;DHT22;62678;52.130;5.584;2023-07-02T04:32:31;14.30;99.90
11963;DHT22;62678;52.130;5.584;2023-07-02T04:34:58;14.40;99.90
11963;DHT22;62678;52.130;5.584;2023-07-02T04:37:25;14.50;99.90
11963;DHT22;62678;52.130;5.584;2023-07-02T04:39:53;14.50;99.90
11963;DHT22;62678;52.130;5.584;2023-07-02T04:42:20;14.60;99.90
11963;DHT22;62678;52.130;5.584;2023-07-02T04:44:47;14.60;99.90
11963;DHT22;62678;52.130;5.584;2023-07-02T04:47:15;14.60;99.90
11963;DHT22;62678;52.130;5.584;2023-07-02T04:49:42;14.70;99.90
11963;DHT22;62678;52.130;5.584;2023-07-02T04:52:09;14.70;99.90
11963;DHT22;62678;52.130;5.584;2023-07-02T04:54:36;14.70;99.90
11963;DHT22;62678;52.130;5.584;2023-07-02T04:57:03;14.70;99.90
11963;DHT22;62678;52.130;5.584;2023-07-02T04:59:30;14.70;99.90
11963;DHT22;62678;52.130;5.584;2023-07-02T05:01:57;14.80;99.90
11963;DHT22;62678;52.130;5.584;2023-07-02T05:04:29;14.90;99.90
11963;DHT22;62678;52.130;5.584;2023-07-02T05:06:56;14.90;99.90
11963;DHT22;62678;52.130;5.584;2023-07-02T05:09:22;14.90;99.90
11963;DHT22;62678;52.130;5.584;2023-07-02T05:11:49;15.00;99.90
11963;DHT22;62678;52.130;5.584;2023-07-02T05:14:16;15.10;99.90
11963;DHT22;62678;52.130;5.584;2023-07-02T05:16:43;15.20;99.90
11963;DHT22;62678;52.130;5.584;2023-07-02T05:19:10;15.30;99.90
11963;DHT22;62678;52.130;5.584;2023-07-02T05:21:38;15.30;99.90
11963;DHT22;62678;52.130;5.584;2023-07-02T05:24:05;15.40;99.90
11963;DHT22;62678;52.130;5.584;2023-07-02T05:26:33;15.40;99.90
11963;DHT22;62678;52.130;5.584;2023-07-02T05:29:00;15.40;99.90
11963;DHT22;62678;52.130;5.584;2023-07-02T05:31:26;15.50;99.90
11963;DHT22;62678;52.130;5.584;2023-07-02T05:33:53;15.60;99.90
11963;DHT22;62678;52.130;5.584;2023-07-02T05:36:21;15.60;99.90
11963;DHT22;62678;52.130;5.584;2023-07-02T05:38:49;15.80;99.90
11963;DHT22;62678;52.130;5.584;2023-07-02T05:41:18;15.80;99.90
11963;DHT22;62678;52.130;5.584;2023-07-02T05:43:45;15.80;99.90
11963;DHT22;62678;52.130;5.584;2023-07-02T05:46:12;15.80;99.90
11963;DHT22;62678;52.130;5.584;2023-07-02T05:48:40;15.80;99.90
11963;DHT22;62678;52.130;5.584;2023-07-02T05:51:07;15.80;99.90
11963;DHT22;62678;52.130;5.584;2023-07-02T05:53:34;15.80;99.90
11963;DHT22;62678;52.130;5.584;2023-07-02T05:56:03;15.90;99.90
11963;DHT22;62678;52.130;5.584;2023-07-02T05:58:30;16.00;99.90
11963;DHT22;62678;52.130;5.584;2023-07-02T06:00:57;16.00;99.90
11963;DHT22;62678;52.130;5.584;2023-07-02T06:03:24;16.00;99.90
11963;DHT22;62678;52.130;5.584;2023-07-02T06:05:51;16.10;99.90
11963;DHT22;62678;52.130;5.584;2023-07-02T06:08:18;16.10;99.90
11963;DHT22;62678;52.130;5.584;2023-07-02T06:10:46;16.20;99.90
11963;DHT22;62678;52.130;5.584;2023-07-02T06:13:15;16.20;99.90
11963;DHT22;62678;52.130;5.584;2023-07-02T06:15:43;16.30;99.90
11963;DHT22;62678;52.130;5.584;2023-07-02T06:18:13;16.40;99.90
11963;DHT22;62678;52.130;5.584;2023-07-02T06:20:39;16.40;99.90
11963;DHT22;62678;52.130;5.584;2023-07-02T06:23:06;16.40;99.90
11963;DHT22;62678;52.130;5.584;2023-07-02T06:25:33;16.40;99.90
11963;DHT22;62678;52.130;5.584;2023-07-02T06:28:00;16.50;99.90
11963;DHT22;62678;52.130;5.584;2023-07-02T06:30:29;16.50;99.90
11963;DHT22;62678;52.130;5.584;2023-07-02T06:32:55;16.50;99.90
11963;DHT22;62678;52.130;5.584;2023-07-02T06:35:22;16.60;99.90
11963;DHT22;62678;52.130;5.584;2023-07-02T06:37:49;16.80;99.90
11963;DHT22;62678;52.130;5.584;2023-07-02T06:40:16;16.80;99.90
11963;DHT22;62678;52.130;5.584;2023-07-02T06:42:43;16.80;99.90
11963;DHT22;62678;52.130;5.584;2023-07-02T06:45:10;16.80;99.90
11963;DHT22;62678;52.130;5.584;2023-07-02T06:47:39;17.20;99.90
11963;DHT22;62678;52.130;5.584;2023-07-02T06:50:06;17.30;99.90
11963;DHT22;62678;52.130;5.584;2023-07-02T06:52:33;17.50;99.90
11963;DHT22;62678;52.130;5.584;2023-07-02T06:55:00;17.60;99.90
11963;DHT22;62678;52.130;5.584;2023-07-02T06:57:27;17.70;99.90
11963;DHT22;62678;52.130;5.584;2023-07-02T06:59:57;17.60;99.90
11963;DHT22;62678;52.130;5.584;2023-07-02T07:02:25;17.50;99.90
11963;DHT22;62678;52.130;5.584;2023-07-02T07:04:54;17.60;99.90
11963;DHT22;62678;52.130;5.584;2023-07-02T07:07:21;17.60;99.90
11963;DHT22;62678;52.130;5.584;2023-07-02T07:09:48;17.40;99.90
11963;DHT22;62678;52.130;5.584;2023-07-02T07:12:15;17.30;99.90
11963;DHT22;62678;52.130;5.584;2023-07-02T07:14:42;17.30;99.90
11963;DHT22;62678;52.130;5.584;2023-07-02T07:17:09;17.10;99.90
11963;DHT22;62678;52.130;5.584;2023-07-02T07:19:36;17.00;99.90
11963;DHT22;62678;52.130;5.584;2023-07-02T07:22:05;17.20;99.90
11963;DHT22;62678;52.130;5.584;2023-07-02T07:24:32;17.30;99.90
11963;DHT22;62678;52.130;5.584;2023-07-02T07:26:59;17.40;99.90
11963;DHT22;62678;52.130;5.584;2023-07-02T07:29:26;17.60;99.90
11963;DHT22;62678;52.130;5.584;2023-07-02T07:31:53;17.90;99.90
11963;DHT22;62678;52.130;5.584;2023-07-02T07:34:21;18.00;99.90
11963;DHT22;62678;52.130;5.584;2023-07-02T07:36:48;18.00;99.90
11963;DHT22;62678;52.130;5.584;2023-07-02T07:39:16;17.90;99.90
11963;DHT22;62678;52.130;5.584;2023-07-02T07:41:46;18.10;99.90
11963;DHT22;62678;52.130;5.584;2023-07-02T07:44:15;18.10;99.90
11963;DHT22;62678;52.130;5.584;2023-07-02T07:46:42;18.20;99.90
11963;DHT22;62678;52.130;5.584;2023-07-02T07:49:09;18.40;99.90
11963;DHT22;62678;52.130;5.584;2023-07-02T07:51:37;18.30;99.90
11963;DHT22;62678;52.130;5.584;2023-07-02T07:54:04;18.30;99.90
11963;DHT22;62678;52.130;5.584;2023-07-02T07:56:34;18.10;99.90
11963;DHT22;62678;52.130;5.584;2023-07-02T07:59:01;18.20;99.90
11963;DHT22;62678;52.130;5.584;2023-07-02T08:01:28;18.40;99.90
11963;DHT22;62678;52.130;5.584;2023-07-02T08:03:55;18.60;99.90
11963;DHT22;62678;52.130;5.584;2023-07-02T08:06:22;18.60;99.90
11963;DHT22;62678;52.130;5.584;2023-07-02T08:08:49;18.50;99.90
11963;DHT22;62678;52.130;5.584;2023-07-02T08:11:17;18.70;99.90
11963;DHT22;62678;52.130;5.584;2023-07-02T08:13:45;18.50;99.90
11963;DHT22;62678;52.130;5.584;2023-07-02T08:16:12;18.30;99.90
11963;DHT22;62678;52.130;5.584;2023-07-02T08:18:39;18.10;99.90
11963;DHT22;62678;52.130;5.584;2023-07-02T08:21:07;18.10;99.90
11963;DHT22;62678;52.130;5.584;2023-07-02T08:23:34;18.10;99.90
11963;DHT22;62678;52.130;5.584;2023-07-02T08:26:01;18.10;99.90
11963;DHT22;62678;52.130;5.584;2023-07-02T08:28:29;18.30;99.90
11963;DHT22;62678;52.130;5.584;2023-07-02T08:30:58;18.50;99.90
11963;DHT22;62678;52.130;5.584;2023-07-02T08:33:25;18.60;99.90
11963;DHT22;62678;52.130;5.584;2023-07-02T08:35:52;18.60;99.90
11963;DHT22;62678;52.130;5.584;2023-07-02T08:38:19;18.70;99.90
11963;DHT22;62678;52.130;5.584;2023-07-02T08:40:48;18.70;99.90
11963;DHT22;62678;52.130;5.584;2023-07-02T08:43:15;18.40;99.90
11963;DHT22;62678;52.130;5.584;2023-07-02T08:45:43;18.30;99.90
11963;DHT22;62678;52.130;5.584;2023-07-02T08:48:12;18.20;99.90
11963;DHT22;62678;52.130;5.584;2023-07-02T08:50:40;18.50;99.90
11963;DHT22;62678;52.130;5.584;2023-07-02T08:53:09;18.80;99.90
11963;DHT22;62678;52.130;5.584;2023-07-02T08:55:36;18.80;99.90
11963;DHT22;62678;52.130;5.584;2023-07-02T08:58:03;18.50;99.90
11963;DHT22;62678;52.130;5.584;2023-07-02T09:00:31;18.30;99.90
11963;DHT22;62678;52.130;5.584;2023-07-02T09:03:13;18.20;99.90
11963;DHT22;62678;52.130;5.584;2023-07-02T09:05:49;18.30;99.90
11963;DHT22;62678;52.130;5.584;2023-07-02T09:08:23;18.60;99.90
11963;DHT22;62678;52.130;5.584;2023-07-02T09:10:51;18.80;99.90
11963;DHT22;62678;52.130;5.584;2023-07-02T09:13:18;18.60;99.90
11963;DHT22;62678;52.130;5.584;2023-07-02T09:15:46;18.80;99.90
11963;DHT22;62678;52.130;5.584;2023-07-02T09:18:20;19.00;99.90
11963;DHT22;62678;52.130;5.584;2023-07-02T09:20:50;19.20;99.90
11963;DHT22;62678;52.130;5.584;2023-07-02T09:23:18;19.30;99.90
11963;DHT22;62678;52.130;5.584;2023-07-02T09:25:45;19.00;99.90
11963;DHT22;62678;52.130;5.584;2023-07-02T09:28:18;18.80;99.90
11963;DHT22;62678;52.130;5.584;2023-07-02T09:30:53;18.90;99.90
11963;DHT22;62678;52.130;5.584;2023-07-02T09:33:23;18.70;99.90
11963;DHT22;62678;52.130;5.584;2023-07-02T09:35:51;18.60;99.90
11963;DHT22;62678;52.130;5.584;2023-07-02T09:38:19;18.60;99.90
11963;DHT22;62678;52.130;5.584;2023-07-02T09:40:49;18.90;99.90
11963;DHT22;62678;52.130;5.584;2023-07-02T09:43:19;19.40;99.90
11963;DHT22;62678;52.130;5.584;2023-07-02T09:45:48;19.60;99.90
11963;DHT22;62678;52.130;5.584;2023-07-02T09:48:17;19.60;99.90
11963;DHT22;62678;52.130;5.584;2023-07-02T09:50:49;19.60;99.90
11963;DHT22;62678;52.130;5.584;2023-07-02T09:53:16;19.60;99.90
11963;DHT22;62678;52.130;5.584;2023-07-02T09:55:44;19.60;99.90
11963;DHT22;62678;52.130;5.584;2023-07-02T09:58:11;20.00;99.90
11963;DHT22;62678;52.130;5.584;2023-07-02T10:00:39;20.00;99.90
11963;DHT22;62678;52.130;5.584;2023-07-02T10:03:07;19.90;99.90
11963;DHT22;62678;52.130;5.584;2023-07-02T10:05:35;20.00;99.90
11963;DHT22;62678;52.130;5.584;2023-07-02T10:08:13;19.90;99.90
11963;DHT22;62678;52.130;5.584;2023-07-02T10:10:42;20.00;99.90
11963;DHT22;62678;52.130;5.584;2023-07-02T10:13:10;19.90;99.90
11963;DHT22;62678;52.130;5.584;2023-07-02T10:15:38;19.80;99.90
11963;DHT22;62678;52.130;5.584;2023-07-02T10:18:06;19.70;99.90
11963;DHT22;62678;52.130;5.584;2023-07-02T10:20:34;19.60;99.90
11963;DHT22;62678;52.130;5.584;2023-07-02T10:23:03;19.70;99.90
11963;DHT22;62678;52.130;5.584;2023-07-02T10:25:33;20.00;99.90
11963;DHT22;62678;52.130;5.584;2023-07-02T10:28:13;20.20;99.90
11963;DHT22;62678;52.130;5.584;2023-07-02T10:30:41;20.50;99.90
11963;DHT22;62678;52.130;5.584;2023-07-02T10:33:10;20.40;99.90
11963;DHT22;62678;52.130;5.584;2023-07-02T10:35:38;20.20;99.90
11963;DHT22;62678;52.130;5.584;2023-07-02T10:38:07;20.40;99.90
11963;DHT22;62678;52.130;5.584;2023-07-02T10:40:35;20.40;99.90
11963;DHT22;62678;52.130;5.584;2023-07-02T10:43:02;20.70;99.90
11963;DHT22;62678;52.130;5.584;2023-07-02T10:45:34;20.90;99.90
11963;DHT22;62678;52.130;5.584;2023-07-02T10:48:02;20.80;99.90
11963;DHT22;62678;52.130;5.584;2023-07-02T10:50:31;20.40;99.90
11963;DHT22;62678;52.130;5.584;2023-07-02T10:52:58;20.60;99.90
11963;DHT22;62678;52.130;5.584;2023-07-02T10:55:28;20.60;99.90
11963;DHT22;62678;52.130;5.584;2023-07-02T10:58:07;20.60;99.90
11963;DHT22;62678;52.130;5.584;2023-07-02T11:00:43;21.00;99.90
11963;DHT22;62678;52.130;5.584;2023-07-02T11:03:17;21.20;99.90
11963;DHT22;62678;52.130;5.584;2023-07-02T11:05:46;21.10;99.90
11963;DHT22;62678;52.130;5.584;2023-07-02T11:08:13;20.80;99.90
11963;DHT22;62678;52.130;5.584;2023-07-02T11:10:41;20.40;99.90
11963;DHT22;62678;52.130;5.584;2023-07-02T11:13:13;20.20;99.90
11963;DHT22;62678;52.130;5.584;2023-07-02T11:15:41;20.20;99.90
11963;DHT22;62678;52.130;5.584;2023-07-02T11:18:11;20.50;99.90
11963;DHT22;62678;52.130;5.584;2023-07-02T11:20:40;20.50;99.90
11963;DHT22;62678;52.130;5.584;2023-07-02T11:23:17;20.30;99.90
11963;DHT22;62678;52.130;5.584;2023-07-02T11:25:54;20.40;99.90
11963;DHT22;62678;52.130;5.584;2023-07-02T11:28:24;20.10;99.90
11963;DHT22;62678;52.130;5.584;2023-07-02T11:30:52;20.20;99.90
11963;DHT22;62678;52.130;5.584;2023-07-02T11:33:20;20.40;99.90
11963;DHT22;62678;52.130;5.584;2023-07-02T11:35:48;20.10;99.90
11963;DHT22;62678;52.130;5.584;2023-07-02T11:38:15;19.80;99.90
11963;DHT22;62678;52.130;5.584;2023-07-02T11:40:43;19.60;99.90
11963;DHT22;62678;52.130;5.584;2023-07-02T11:43:12;19.60;99.90
11963;DHT22;62678;52.130;5.584;2023-07-02T11:45:40;19.60;99.90
11963;DHT22;62678;52.130;5.584;2023-07-02T11:48:08;19.60;99.90
11963;DHT22;62678;52.130;5.584;2023-07-02T11:50:35;19.50;99.90
11963;DHT22;62678;52.130;5.584;2023-07-02T11:53:03;19.90;99.90
11963;DHT22;62678;52.130;5.584;2023-07-02T11:55:30;20.00;99.90
11963;DHT22;62678;52.130;5.584;2023-07-02T11:57:57;20.20;99.90
11963;DHT22;62678;52.130;5.584;2023-07-02T12:00:25;20.60;99.90
11963;DHT22;62678;52.130;5.584;2023-07-02T12:02:54;21.00;99.90
11963;DHT22;62678;52.130;5.584;2023-07-02T12:05:21;20.70;99.90
11963;DHT22;62678;52.130;5.584;2023-07-02T12:07:49;20.70;99.90
11963;DHT22;62678;52.130;5.584;2023-07-02T12:10:17;20.70;99.90
11963;DHT22;62678;52.130;5.584;2023-07-02T12:12:44;21.00;99.90
11963;DHT22;62678;52.130;5.584;2023-07-02T12:15:11;21.10;99.90
11963;DHT22;62678;52.130;5.584;2023-07-02T12:17:39;21.40;99.90
11963;DHT22;62678;52.130;5.584;2023-07-02T12:20:09;21.30;99.90
11963;DHT22;62678;52.130;5.584;2023-07-02T12:22:36;21.20;99.90
11963;DHT22;62678;52.130;5.584;2023-07-02T12:25:04;20.80;99.90
11963;DHT22;62678;52.130;5.584;2023-07-02T12:27:31;20.80;99.90
11963;DHT22;62678;52.130;5.584;2023-07-02T12:29:59;20.60;99.90
11963;DHT22;62678;52.130;5.584;2023-07-02T12:32:26;20.40;99.90
11963;DHT22;62678;52.130;5.584;2023-07-02T12:34:53;20.40;99.90
11963;DHT22;62678;52.130;5.584;2023-07-02T12:37:22;20.20;99.90
11963;DHT22;62678;52.130;5.584;2023-07-02T12:39:49;20.20;99.90
11963;DHT22;62678;52.130;5.584;2023-07-02T12:42:17;20.20;99.90
11963;DHT22;62678;52.130;5.584;2023-07-02T12:44:44;20.30;99.90
11963;DHT22;62678;52.130;5.584;2023-07-02T12:47:11;20.10;99.90
11963;DHT22;62678;52.130;5.584;2023-07-02T12:49:38;20.40;99.90
11963;DHT22;62678;52.130;5.584;2023-07-02T12:52:06;20.50;99.90
11963;DHT22;62678;52.130;5.584;2023-07-02T12:54:34;20.50;99.90
11963;DHT22;62678;52.130;5.584;2023-07-02T12:57:01;20.80;99.90
11963;DHT22;62678;52.130;5.584;2023-07-02T12:59:28;21.00;99.90
11963;DHT22;62678;52.130;5.584;2023-07-02T13:01:56;21.20;99.90
11963;DHT22;62678;52.130;5.584;2023-07-02T13:04:23;21.40;99.90
11963;DHT22;62678;52.130;5.584;2023-07-02T13:06:50;21.50;99.90
11963;DHT22;62678;52.130;5.584;2023-07-02T13:09:17;21.30;99.90
11963;DHT22;62678;52.130;5.584;2023-07-02T13:11:46;21.30;99.90
11963;DHT22;62678;52.130;5.584;2023-07-02T13:14:14;21.20;99.90
11963;DHT22;62678;52.130;5.584;2023-07-02T13:16:41;21.30;99.90
11963;DHT22;62678;52.130;5.584;2023-07-02T13:19:09;21.10;99.90
11963;DHT22;62678;52.130;5.584;2023-07-02T13:21:36;21.20;99.90
11963;DHT22;62678;52.130;5.584;2023-07-02T13:24:04;20.90;99.90
11963;DHT22;62678;52.130;5.584;2023-07-02T13:26:32;20.50;99.90
11963;DHT22;62678;52.130;5.584;2023-07-02T13:29:00;20.40;99.90
11963;DHT22;62678;52.130;5.584;2023-07-02T13:31:28;20.80;99.90
11963;DHT22;62678;52.130;5.584;2023-07-02T13:33:55;21.20;99.90
11963;DHT22;62678;52.130;5.584;2023-07-02T13:36:23;21.30;99.90
11963;DHT22;62678;52.130;5.584;2023-07-02T13:38:50;21.40;99.90
11963;DHT22;62678;52.130;5.584;2023-07-02T13:41:17;21.90;99.90
11963;DHT22;62678;52.130;5.584;2023-07-02T13:43:44;22.20;99.90
11963;DHT22;62678;52.130;5.584;2023-07-02T13:46:13;22.50;99.90
11963;DHT22;62678;52.130;5.584;2023-07-02T13:48:40;22.10;99.90
11963;DHT22;62678;52.130;5.584;2023-07-02T13:51:08;22.00;99.90
11963;DHT22;62678;52.130;5.584;2023-07-02T13:53:34;22.20;99.90
11963;DHT22;62678;52.130;5.584;2023-07-02T13:56:02;22.50;99.90
11963;DHT22;62678;52.130;5.584;2023-07-02T13:58:57;22.00;99.90
11963;DHT22;62678;52.130;5.584;2023-07-02T14:01:25;21.80;99.90
11963;DHT22;62678;52.130;5.584;2023-07-02T14:03:52;21.80;99.90
11963;DHT22;62678;52.130;5.584;2023-07-02T14:06:20;21.40;99.90
11963;DHT22;62678;52.130;5.584;2023-07-02T14:08:47;21.80;99.90
11963;DHT22;62678;52.130;5.584;2023-07-02T14:11:14;22.10;99.90
11963;DHT22;62678;52.130;5.584;2023-07-02T14:13:41;22.00;99.90
11963;DHT22;62678;52.130;5.584;2023-07-02T14:16:10;22.10;99.90
11963;DHT22;62678;52.130;5.584;2023-07-02T14:18:37;22.00;99.90
11963;DHT22;62678;52.130;5.584;2023-07-02T14:21:04;21.70;99.90
11963;DHT22;62678;52.130;5.584;2023-07-02T14:23:32;21.90;99.90
11963;DHT22;62678;52.130;5.584;2023-07-02T14:26:00;21.90;99.90
11963;DHT22;62678;52.130;5.584;2023-07-02T14:28:27;21.50;99.90
11963;DHT22;62678;52.130;5.584;2023-07-02T14:31:01;21.90;99.90
11963;DHT22;62678;52.130;5.584;2023-07-02T14:33:33;22.00;99.90
11963;DHT22;62678;52.130;5.584;2023-07-02T14:36:01;22.10;99.90
11963;DHT22;62678;52.130;5.584;2023-07-02T14:38:29;22.00;99.90
11963;DHT22;62678;52.130;5.584;2023-07-02T14:40:57;21.60;99.90
11963;DHT22;62678;52.130;5.584;2023-07-02T14:43:26;21.70;99.90
11963;DHT22;62678;52.130;5.584;2023-07-02T14:45:56;22.50;99.90
11963;DHT22;62678;52.130;5.584;2023-07-02T14:48:24;23.20;99.90
11963;DHT22;62678;52.130;5.584;2023-07-02T14:50:54;23.20;99.90
11963;DHT22;62678;52.130;5.584;2023-07-02T14:53:23;22.70;99.90
11963;DHT22;62678;52.130;5.584;2023-07-02T14:55:53;22.10;99.90
11963;DHT22;62678;52.130;5.584;2023-07-02T14:58:21;22.40;99.90
11963;DHT22;62678;52.130;5.584;2023-07-02T15:00:50;23.30;99.90
11963;DHT22;62678;52.130;5.584;2023-07-02T15:03:19;24.20;99.90
11963;DHT22;62678;52.130;5.584;2023-07-02T15:05:49;23.40;99.90
11963;DHT22;62678;52.130;5.584;2023-07-02T15:08:19;22.80;99.90
11963;DHT22;62678;52.130;5.584;2023-07-02T15:10:48;22.90;99.90
11963;DHT22;62678;52.130;5.584;2023-07-02T15:13:16;23.00;99.90
11963;DHT22;62678;52.130;5.584;2023-07-02T15:15:45;22.40;99.90
11963;DHT22;62678;52.130;5.584;2023-07-02T15:18:12;22.70;99.90
11963;DHT22;62678;52.130;5.584;2023-07-02T15:20:40;23.20;99.90
11963;DHT22;62678;52.130;5.584;2023-07-02T15:23:10;23.80;99.90
11963;DHT22;62678;52.130;5.584;2023-07-02T15:25:39;23.80;99.90
11963;DHT22;62678;52.130;5.584;2023-07-02T15:28:06;24.10;99.90
11963;DHT22;62678;52.130;5.584;2023-07-02T15:30:38;24.70;99.90
11963;DHT22;62678;52.130;5.584;2023-07-02T15:33:06;23.60;99.90
11963;DHT22;62678;52.130;5.584;2023-07-02T15:35:33;23.40;99.90